createdAt,value
2018-07-15T00:01:11.946Z,6.97
2018-07-15T00:03:39.811Z,7.70
2018-07-15T00:06:07.529Z,7.20
2018-07-15T00:08:35.583Z,7.30
2018-07-15T00:11:03.266Z,6.53
2018-07-15T00:13:30.820Z,7.60
2018-07-15T00:15:58.508Z,7.03
2018-07-15T00:18:26.147Z,7.67
2018-07-15T00:20:53.759Z,6.87
2018-07-15T00:23:21.857Z,7.93
2018-07-15T00:25:49.540Z,7.53
2018-07-15T00:28:17.230Z,8.70
2018-07-15T00:30:45.057Z,8.00
2018-07-15T00:33:12.696Z,6.70
2018-07-15T00:35:40.327Z,7.80
2018-07-15T00:38:08.300Z,8.40
2018-07-15T00:40:35.935Z,8.07
2018-07-15T00:43:03.533Z,11.97
2018-07-15T00:45:31.367Z,8.73
2018-07-15T00:47:59.038Z,8.80
2018-07-15T00:50:26.660Z,7.57
2018-07-15T00:52:54.457Z,7.50
2018-07-15T00:55:22.159Z,8.73
2018-07-15T00:57:49.742Z,7.03
2018-07-15T01:01:23.324Z,6.70
2018-07-15T01:03:51.162Z,7.63
2018-07-15T01:06:18.906Z,9.27
2018-07-15T01:08:46.543Z,7.90
2018-07-15T01:11:14.177Z,7.63
2018-07-15T01:13:42.230Z,8.87
2018-07-15T01:16:09.860Z,8.57
2018-07-15T01:18:37.530Z,8.10
2018-07-15T01:21:05.503Z,8.97
2018-07-15T01:23:33.123Z,9.00
2018-07-15T01:26:00.674Z,7.53
2018-07-15T01:28:28.293Z,8.77
2018-07-15T01:30:55.923Z,8.57
2018-07-15T01:33:23.585Z,10.63
2018-07-15T01:35:51.590Z,9.20
2018-07-15T01:38:19.213Z,7.63
2018-07-15T01:40:46.804Z,7.77
2018-07-15T01:43:14.749Z,8.07
2018-07-15T01:45:42.386Z,7.83
2018-07-15T01:48:09.934Z,7.90
2018-07-15T01:50:37.701Z,9.60
2018-07-15T01:53:05.343Z,7.87
2018-07-15T01:55:32.959Z,8.10
2018-07-15T01:58:00.918Z,9.00
2018-07-15T02:00:28.533Z,9.00
2018-07-15T02:02:56.181Z,7.70
2018-07-15T02:05:24.067Z,7.73
2018-07-15T02:08:22.393Z,7.43
2018-07-15T02:10:50.402Z,7.80
2018-07-15T02:13:17.991Z,8.23
2018-07-15T02:15:45.685Z,8.13
2018-07-15T02:18:13.711Z,9.70
2018-07-15T02:20:41.329Z,8.97
2018-07-15T02:23:08.970Z,8.40
2018-07-15T02:25:36.896Z,8.50
2018-07-15T02:28:04.458Z,8.73
2018-07-15T02:30:32.008Z,8.83
2018-07-15T02:32:59.900Z,8.13
2018-07-15T02:35:27.505Z,8.67
2018-07-15T02:37:55.164Z,8.10
2018-07-15T02:40:23.099Z,8.53
2018-07-15T02:42:50.761Z,9.03
2018-07-15T02:45:18.393Z,8.20
2018-07-15T02:47:46.263Z,7.70
2018-07-15T02:50:13.888Z,8.87
2018-07-15T02:52:41.521Z,8.97
2018-07-15T02:55:09.609Z,8.97
2018-07-15T02:57:37.258Z,8.47
2018-07-15T03:00:05.030Z,10.00
2018-07-15T03:02:33.010Z,10.70
2018-07-15T03:05:00.617Z,8.17
2018-07-15T03:07:28.383Z,8.70
2018-07-15T03:09:56.315Z,9.10
2018-07-15T03:12:23.897Z,8.73
2018-07-15T03:14:51.477Z,8.90
2018-07-15T03:17:19.563Z,9.50
2018-07-15T03:19:47.109Z,8.27
2018-07-15T03:22:14.702Z,8.53
2018-07-15T03:24:42.878Z,9.53
2018-07-15T03:27:10.664Z,8.20
2018-07-15T03:29:38.276Z,11.67
2018-07-15T03:32:06.050Z,9.93
2018-07-15T03:34:33.693Z,8.83
2018-07-15T03:37:01.290Z,9.27
2018-07-15T03:39:29.286Z,10.30
2018-07-15T03:41:56.907Z,9.30
2018-07-15T03:44:24.534Z,9.47
2018-07-15T03:46:52.464Z,10.53
2018-07-15T03:49:20.106Z,8.93
2018-07-15T03:51:47.739Z,10.60
2018-07-15T03:54:15.851Z,10.33
2018-07-15T03:56:43.434Z,9.40
2018-07-15T03:59:11.040Z,11.20
2018-07-15T04:01:39.074Z,8.70
2018-07-15T04:04:06.598Z,9.10
2018-07-15T04:06:34.136Z,9.83
2018-07-15T04:09:02.427Z,9.13
2018-07-15T04:11:30.016Z,8.23
2018-07-15T04:13:57.658Z,8.73
2018-07-15T04:16:25.698Z,10.73
2018-07-15T04:18:53.351Z,9.20
2018-07-15T04:21:20.982Z,9.97
2018-07-15T04:23:49.032Z,9.73
2018-07-15T04:26:16.662Z,9.07
2018-07-15T04:28:44.274Z,9.60
2018-07-15T04:31:12.284Z,10.13
2018-07-15T04:33:39.901Z,9.00
2018-07-15T04:36:07.520Z,8.47
2018-07-15T04:38:35.430Z,9.60
2018-07-15T04:41:03.137Z,9.27
2018-07-15T04:43:30.717Z,8.13
2018-07-15T04:45:58.663Z,10.63
2018-07-15T04:48:26.292Z,8.77
2018-07-15T04:50:53.855Z,8.90
2018-07-15T04:53:21.814Z,9.20
2018-07-15T04:55:49.424Z,8.60
2018-07-15T04:58:17.054Z,8.73
2018-07-15T05:00:44.982Z,10.10
2018-07-15T05:03:12.642Z,9.27
2018-07-15T05:05:40.243Z,9.60
2018-07-15T05:08:08.159Z,8.57
2018-07-15T05:10:36.017Z,8.50
2018-07-15T05:13:03.680Z,8.77
2018-07-15T05:15:31.489Z,9.13
2018-07-15T05:17:59.101Z,8.77
2018-07-15T05:20:26.642Z,8.63
2018-07-15T05:22:54.616Z,9.23
2018-07-15T05:25:22.272Z,8.53
2018-07-15T05:27:49.925Z,7.73
2018-07-15T05:30:18.067Z,10.10
2018-07-15T05:32:45.677Z,9.77
2018-07-15T05:35:13.241Z,9.30
2018-07-15T05:37:41.020Z,8.17
2018-07-15T05:40:08.628Z,8.40
2018-07-15T05:42:36.253Z,9.27
2018-07-15T05:45:04.221Z,8.50
2018-07-15T05:47:31.856Z,8.70
2018-07-15T05:49:59.567Z,8.70
2018-07-15T05:52:27.569Z,11.70
2018-07-15T05:54:55.215Z,8.10
2018-07-15T05:57:22.914Z,9.60
2018-07-15T05:59:50.956Z,7.87
2018-07-15T06:02:18.553Z,8.03
2018-07-15T06:04:46.181Z,7.80
2018-07-15T06:07:14.219Z,7.70
2018-07-15T06:09:41.868Z,7.13
2018-07-15T06:12:09.731Z,7.03
2018-07-15T06:14:37.621Z,8.03
2018-07-15T06:17:05.302Z,7.37
2018-07-15T06:19:32.945Z,7.50
2018-07-15T06:22:01.029Z,6.60
2018-07-15T06:24:28.546Z,6.53
2018-07-15T06:26:56.164Z,6.93
2018-07-15T06:29:24.147Z,5.80
2018-07-15T06:31:51.788Z,6.30
2018-07-15T06:34:19.466Z,7.43
2018-07-15T06:36:47.379Z,6.50
2018-07-15T06:39:15.025Z,7.30
2018-07-15T06:41:42.682Z,6.53
2018-07-15T06:44:10.779Z,6.97
2018-07-15T06:46:38.341Z,5.97
2018-07-15T06:49:06.022Z,6.37
2018-07-15T06:51:33.912Z,6.53
2018-07-15T06:54:01.677Z,6.47
2018-07-15T06:56:29.126Z,6.97
2018-07-15T06:58:57.826Z,6.63
2018-07-15T07:01:25.541Z,5.90
2018-07-15T07:03:53.141Z,5.73
2018-07-15T07:06:21.071Z,5.83
2018-07-15T07:08:49.713Z,5.27
2018-07-15T07:11:17.395Z,5.07
2018-07-15T07:13:45.644Z,5.67
2018-07-15T07:16:13.285Z,6.50
2018-07-15T07:18:40.910Z,5.93
2018-07-15T07:21:08.821Z,6.00
2018-07-15T07:23:36.417Z,6.20
2018-07-15T07:26:04.073Z,6.20
2018-07-15T07:28:32.014Z,6.33
2018-07-15T07:30:59.659Z,6.03
2018-07-15T07:33:27.275Z,5.80
2018-07-15T07:35:55.017Z,6.13
2018-07-15T07:38:22.653Z,6.60
2018-07-15T07:40:50.263Z,5.80
2018-07-15T07:43:18.090Z,5.43
2018-07-15T07:45:45.635Z,5.40
2018-07-15T07:48:13.248Z,4.80
2018-07-15T07:50:41.059Z,4.90
2018-07-15T07:53:08.703Z,4.27
2018-07-15T07:55:36.338Z,4.57
2018-07-15T07:58:04.305Z,4.67
2018-07-15T08:00:31.897Z,4.17
2018-07-15T08:02:59.529Z,4.40
2018-07-15T08:05:27.415Z,4.40
2018-07-15T08:07:55.003Z,4.60
2018-07-15T08:10:22.578Z,4.03
2018-07-15T08:12:50.574Z,4.60
2018-07-15T08:15:18.351Z,4.90
2018-07-15T08:17:45.904Z,4.50
2018-07-15T08:20:13.663Z,4.57
2018-07-15T08:22:41.316Z,4.57
2018-07-15T08:25:09.018Z,5.07
2018-07-15T08:27:36.987Z,5.80
2018-07-15T08:30:15.797Z,5.30
2018-07-15T08:32:43.594Z,5.63
2018-07-15T08:35:11.205Z,5.30
2018-07-15T08:37:39.030Z,5.33
2018-07-15T08:40:06.995Z,5.00
2018-07-15T08:42:34.547Z,5.67
2018-07-15T08:45:02.218Z,4.70
2018-07-15T08:47:30.178Z,4.43
2018-07-15T08:49:57.836Z,5.00
2018-07-15T08:52:25.487Z,4.90
2018-07-15T08:54:53.334Z,5.70
2018-07-15T08:57:21.055Z,4.60
2018-07-15T08:59:48.683Z,5.27
2018-07-15T09:02:16.694Z,5.30
2018-07-15T09:04:44.341Z,5.50
2018-07-15T09:07:11.986Z,5.17
2018-07-15T09:09:40.334Z,5.00
2018-07-15T09:12:07.929Z,5.37
2018-07-15T09:14:35.531Z,6.37
2018-07-15T09:17:03.959Z,5.80
2018-07-15T09:19:31.630Z,5.30
2018-07-15T09:21:59.255Z,5.50
2018-07-15T09:24:27.267Z,6.20
2018-07-15T09:26:54.870Z,5.20
2018-07-15T09:29:22.458Z,5.93
2018-07-15T09:31:50.281Z,6.30
2018-07-15T09:34:18.097Z,6.13
2018-07-15T09:36:45.708Z,6.27
2018-07-15T09:39:13.601Z,6.00
2018-07-15T09:41:41.274Z,5.93
2018-07-15T09:44:08.881Z,5.63
2018-07-15T09:46:36.757Z,5.33
2018-07-15T09:49:04.653Z,5.50
2018-07-15T09:51:32.226Z,5.53
2018-07-15T09:54:00.349Z,5.03
2018-07-15T09:56:27.938Z,5.03
2018-07-15T09:58:55.514Z,5.30
2018-07-15T10:01:23.663Z,4.70
2018-07-15T10:03:51.289Z,5.00
2018-07-15T10:06:18.914Z,5.30
2018-07-15T10:08:46.974Z,4.17
2018-07-15T10:11:14.595Z,5.00
2018-07-15T10:13:42.321Z,4.93
2018-07-15T10:16:10.368Z,4.70
2018-07-15T10:18:38.080Z,5.50
2018-07-15T10:21:05.657Z,4.87
2018-07-15T10:23:33.589Z,4.73
2018-07-15T10:26:01.177Z,5.47
2018-07-15T10:28:28.756Z,5.47
2018-07-15T10:30:56.726Z,5.30
2018-07-15T10:33:24.286Z,5.67
2018-07-15T10:35:51.902Z,6.33
2018-07-15T10:38:19.755Z,6.20
2018-07-15T10:40:47.392Z,5.63
2018-07-15T10:43:15.068Z,5.43
2018-07-15T10:45:42.846Z,5.23
2018-07-15T10:48:10.498Z,4.97
2018-07-15T10:50:38.079Z,4.80
2018-07-15T10:53:06.223Z,4.87
2018-07-15T10:55:34.031Z,4.30
2018-07-15T10:58:01.577Z,4.50
2018-07-15T11:00:29.604Z,4.73
2018-07-15T11:02:57.212Z,4.17
2018-07-15T11:05:24.770Z,4.10
2018-07-15T11:07:52.725Z,3.90
2018-07-15T11:10:20.351Z,4.10
2018-07-15T11:12:47.948Z,4.63
2018-07-15T11:15:16.141Z,3.90
2018-07-15T11:17:43.728Z,4.60
2018-07-15T11:20:11.567Z,4.40
2018-07-15T11:22:39.447Z,3.97
2018-07-15T11:25:07.093Z,3.97
2018-07-15T11:27:34.691Z,4.50
2018-07-15T11:30:02.848Z,4.37
2018-07-15T11:32:30.480Z,3.60
2018-07-15T11:34:58.107Z,4.13
2018-07-15T11:37:25.986Z,4.07
2018-07-15T11:39:53.634Z,4.20
2018-07-15T11:42:21.241Z,4.07
2018-07-15T11:44:49.036Z,4.23
2018-07-15T11:47:16.639Z,3.23
2018-07-15T11:49:44.298Z,3.90
2018-07-15T11:52:12.078Z,3.30
2018-07-15T11:54:39.696Z,3.27
2018-07-15T11:57:07.319Z,3.47
2018-07-15T11:59:35.330Z,3.70
2018-07-15T12:02:03.003Z,3.13
2018-07-15T12:04:30.576Z,3.50
2018-07-15T12:06:58.325Z,2.90
2018-07-15T12:09:25.949Z,3.30
2018-07-15T12:11:53.450Z,3.10
2018-07-15T12:14:21.207Z,2.80
2018-07-15T12:16:48.804Z,3.10
2018-07-15T12:19:16.496Z,3.20
2018-07-15T12:21:44.574Z,3.30
2018-07-15T12:24:12.219Z,3.33
2018-07-15T12:26:39.874Z,3.30
2018-07-15T12:29:07.860Z,3.13
2018-07-15T12:31:35.689Z,3.20
2018-07-15T12:34:03.340Z,3.37
2018-07-15T12:36:31.246Z,4.17
2018-07-15T12:38:58.795Z,3.70
2018-07-15T12:41:26.358Z,3.63
2018-07-15T12:43:54.167Z,2.80
2018-07-15T12:46:21.867Z,2.60
2018-07-15T12:48:49.480Z,2.80
2018-07-15T12:51:17.240Z,2.63
2018-07-15T12:53:44.853Z,3.97
2018-07-15T12:56:12.896Z,4.43
2018-07-15T12:58:40.868Z,3.20
2018-07-15T13:01:08.506Z,3.17
2018-07-15T13:03:36.069Z,3.27
2018-07-15T13:06:04.074Z,3.33
2018-07-15T13:08:31.626Z,3.37
2018-07-15T13:10:59.260Z,2.77
2018-07-15T13:13:27.148Z,3.57
2018-07-15T13:15:54.693Z,2.90
2018-07-15T13:18:22.422Z,2.90
2018-07-15T13:20:50.329Z,3.40
2018-07-15T13:23:18.106Z,3.37
2018-07-15T13:25:45.751Z,3.00
2018-07-15T13:28:13.658Z,3.30
2018-07-15T13:30:41.328Z,3.50
2018-07-15T13:33:08.957Z,3.13
2018-07-15T13:35:36.768Z,2.70
2018-07-15T13:38:04.363Z,3.57
2018-07-15T13:40:31.973Z,3.73
2018-07-15T13:42:59.683Z,3.93
2018-07-15T13:45:27.273Z,3.90
2018-07-15T13:47:54.911Z,5.30
2018-07-15T13:50:22.696Z,4.43
2018-07-15T13:52:50.600Z,4.63
2018-07-15T13:55:18.157Z,5.80
2018-07-15T13:57:46.120Z,6.43
2018-07-15T14:00:13.733Z,6.80
2018-07-15T14:02:41.342Z,5.40
2018-07-15T14:05:08.995Z,4.97
2018-07-15T14:07:36.552Z,4.90
2018-07-15T14:10:04.327Z,4.70
2018-07-15T14:12:32.207Z,4.77
2018-07-15T14:14:59.787Z,4.40
2018-07-15T14:17:27.541Z,4.57
2018-07-15T14:20:10.441Z,4.57
2018-07-15T14:22:37.974Z,4.17
2018-07-15T14:25:06.104Z,4.10
2018-07-15T14:27:33.948Z,4.97
2018-07-15T14:30:01.569Z,4.77
2018-07-15T14:32:29.692Z,4.80
2018-07-15T14:34:57.504Z,4.83
2018-07-15T14:37:25.126Z,4.70
2018-07-15T14:39:52.868Z,4.93
2018-07-15T14:42:20.519Z,5.83
2018-07-15T14:44:48.091Z,4.63
2018-07-15T14:47:15.921Z,3.87
2018-07-15T14:49:43.679Z,3.90
2018-07-15T14:52:11.241Z,4.23
2018-07-15T14:54:38.963Z,3.47
2018-07-15T14:57:06.903Z,3.73
2018-07-15T14:59:34.429Z,4.57
2018-07-15T15:02:02.234Z,4.00
2018-07-15T15:04:30.018Z,3.47
2018-07-15T15:06:57.647Z,4.40
2018-07-15T15:09:25.318Z,4.23
2018-07-15T15:11:53.060Z,4.20
2018-07-15T15:14:20.649Z,4.17
2018-07-15T15:16:48.332Z,4.97
2018-07-15T15:19:15.945Z,3.83
2018-07-15T15:21:43.482Z,4.60
2018-07-15T15:24:11.190Z,3.50
2018-07-15T15:26:38.987Z,3.83
2018-07-15T15:29:06.636Z,3.70
2018-07-15T15:31:34.371Z,4.10
2018-07-15T15:34:01.951Z,3.80
2018-07-15T15:36:29.509Z,4.17
2018-07-15T15:38:57.461Z,3.50
2018-07-15T15:41:25.139Z,4.50
2018-07-15T15:43:52.732Z,3.67
2018-07-15T15:46:20.479Z,3.90
2018-07-15T15:48:48.211Z,3.77
2018-07-15T15:51:15.812Z,3.40
2018-07-15T15:53:43.448Z,3.40
2018-07-15T15:56:11.116Z,3.40
2018-07-15T15:58:38.696Z,5.27
2018-07-15T16:01:06.507Z,3.97
2018-07-15T16:03:34.348Z,3.43
2018-07-15T16:06:02.183Z,3.37
2018-07-15T16:08:29.821Z,3.87
2018-07-15T16:10:57.331Z,3.63
2018-07-15T16:13:24.949Z,3.77
2018-07-15T16:15:52.743Z,3.73
2018-07-15T16:18:20.372Z,3.83
2018-07-15T16:20:47.984Z,3.57
2018-07-15T16:23:15.699Z,3.60
2018-07-15T16:25:43.481Z,3.60
2018-07-15T16:28:11.298Z,3.80
2018-07-15T16:30:38.952Z,3.47
2018-07-15T16:33:06.605Z,3.83
2018-07-15T16:35:34.221Z,4.37
2018-07-15T16:38:01.841Z,3.83
2018-07-15T16:40:29.612Z,3.43
2018-07-15T16:42:57.194Z,3.73
2018-07-15T16:45:24.822Z,3.60
2018-07-15T16:47:52.449Z,3.87
2018-07-15T16:50:20.083Z,3.70
2018-07-15T16:52:47.902Z,3.53
2018-07-15T16:55:15.659Z,3.40
2018-07-15T16:57:43.316Z,3.50
2018-07-15T17:00:10.970Z,3.70
2018-07-15T17:02:38.698Z,3.73
2018-07-15T17:05:06.472Z,3.80
2018-07-15T17:07:34.197Z,3.63
2018-07-15T17:10:01.925Z,3.70
2018-07-15T17:12:29.479Z,4.23
2018-07-15T17:14:57.100Z,4.27
2018-07-15T17:17:24.667Z,3.60
2018-07-15T17:19:52.241Z,3.60
2018-07-15T17:22:19.898Z,3.67
2018-07-15T17:24:47.648Z,3.97
2018-07-15T17:27:15.210Z,3.43
2018-07-15T17:29:43.039Z,3.80
2018-07-15T17:32:10.790Z,3.43
2018-07-15T17:34:38.292Z,3.63
2018-07-15T17:37:06.277Z,4.47
2018-07-15T17:39:34.083Z,3.90
2018-07-15T17:42:01.669Z,3.73
2018-07-15T17:44:29.376Z,4.00
2018-07-15T17:46:57.117Z,3.70
2018-07-15T17:49:24.669Z,4.03
2018-07-15T17:51:52.323Z,3.67
2018-07-15T17:54:19.953Z,3.90
2018-07-15T17:56:47.490Z,3.63
2018-07-15T17:59:15.083Z,3.60
2018-07-15T18:01:42.743Z,4.30
2018-07-15T18:04:10.313Z,4.30
2018-07-15T18:06:38.050Z,3.70
2018-07-15T18:09:06.335Z,3.60
2018-07-15T18:11:33.954Z,3.87
2018-07-15T18:14:01.742Z,4.23
2018-07-15T18:16:29.512Z,3.70
2018-07-15T18:18:57.161Z,4.10
2018-07-15T18:21:24.915Z,4.03
2018-07-15T18:23:52.675Z,3.50
2018-07-15T18:26:20.289Z,4.17
2018-07-15T18:28:48.034Z,4.23
2018-07-15T18:31:15.862Z,4.83
2018-07-15T18:33:43.384Z,3.77
2018-07-15T18:36:11.122Z,4.20
2018-07-15T18:38:38.881Z,4.20
2018-07-15T18:41:06.488Z,3.87
2018-07-15T18:43:34.333Z,4.20
2018-07-15T18:46:01.948Z,4.23
2018-07-15T18:48:29.534Z,4.03
2018-07-15T18:50:57.310Z,4.20
2018-07-15T18:53:25.063Z,3.77
2018-07-15T18:55:52.651Z,4.17
2018-07-15T18:58:20.269Z,4.30
2018-07-15T19:00:48.061Z,4.13
2018-07-15T19:03:22.381Z,4.30
2018-07-15T19:05:50.091Z,4.20
2018-07-15T19:08:17.623Z,4.53
2018-07-15T19:10:45.367Z,4.50
2018-07-15T19:13:12.955Z,4.80
2018-07-15T19:15:40.573Z,4.40
2018-07-15T19:18:08.209Z,4.40
2018-07-15T19:20:36.055Z,4.30
2018-07-15T19:23:03.602Z,4.83
2018-07-15T19:25:31.528Z,4.33
2018-07-15T19:27:59.342Z,4.53
2018-07-15T19:30:27.005Z,4.40
2018-07-15T19:32:55.135Z,4.33
2018-07-15T19:35:22.806Z,4.73
2018-07-15T19:37:50.451Z,4.70
2018-07-15T19:40:18.081Z,4.27
2018-07-15T19:42:45.790Z,4.30
2018-07-15T19:45:13.386Z,4.10
2018-07-15T19:47:41.040Z,4.80
2018-07-15T19:50:08.740Z,6.27
2018-07-15T19:52:36.378Z,5.03
2018-07-15T19:55:04.121Z,4.63
2018-07-15T19:57:31.758Z,5.63
2018-07-15T19:59:59.307Z,6.40
2018-07-15T20:02:27.133Z,5.93
2018-07-15T20:04:54.887Z,4.53
2018-07-15T20:07:22.400Z,4.00
2018-07-15T20:09:49.895Z,4.60
2018-07-15T20:12:17.552Z,4.73
2018-07-15T20:14:45.109Z,4.37
2018-07-15T20:17:12.974Z,4.23
2018-07-15T20:19:40.738Z,4.10
2018-07-15T20:22:08.570Z,3.90
2018-07-15T20:24:36.340Z,3.67
2018-07-15T20:27:04.042Z,3.50
2018-07-15T20:29:31.598Z,3.70
2018-07-15T20:31:59.299Z,3.00
2018-07-15T20:34:27.322Z,3.40
2018-07-15T20:36:54.784Z,3.60
2018-07-15T20:39:22.537Z,3.23
2018-07-15T20:41:50.170Z,3.07
2018-07-15T20:44:17.861Z,3.03
2018-07-15T20:46:45.447Z,3.33
2018-07-15T20:49:12.963Z,2.67
2018-07-15T20:51:40.512Z,2.57
2018-07-15T20:54:08.153Z,2.63
2018-07-15T20:56:35.738Z,2.67
2018-07-15T20:59:03.286Z,3.50
2018-07-15T21:01:30.993Z,2.50
2018-07-15T21:04:02.560Z,1.60
2018-07-15T21:06:30.080Z,2.37
2018-07-15T21:08:58.081Z,1.77
2018-07-15T21:11:25.881Z,2.30
2018-07-15T21:13:53.425Z,1.80
2018-07-15T21:16:21.255Z,2.03
2018-07-15T21:18:49.054Z,1.50
2018-07-15T21:21:16.656Z,1.70
2018-07-15T21:23:44.275Z,1.40
2018-07-15T21:26:11.949Z,1.50
2018-07-15T21:28:39.481Z,1.60
2018-07-15T21:31:07.222Z,2.10
2018-07-15T21:33:34.955Z,1.77
2018-07-15T21:36:02.895Z,1.47
2018-07-15T21:38:30.547Z,1.73
2018-07-15T21:40:58.205Z,1.53
2018-07-15T21:43:25.745Z,1.60
2018-07-15T21:45:53.418Z,2.40
2018-07-15T21:48:21.045Z,2.77
2018-07-15T21:50:48.599Z,2.20
2018-07-15T21:53:16.253Z,1.63
2018-07-15T21:55:43.839Z,1.73
2018-07-15T21:58:11.345Z,1.87
2018-07-15T22:00:39.103Z,1.40
2018-07-15T22:03:06.743Z,1.43
2018-07-15T22:05:34.388Z,1.43
2018-07-15T22:08:13.178Z,1.70
2018-07-15T22:10:42.961Z,1.60
2018-07-15T22:13:10.520Z,2.40
2018-07-15T22:15:38.369Z,1.40
2018-07-15T22:18:06.197Z,2.47
2018-07-15T22:20:33.893Z,1.33
2018-07-15T22:23:01.654Z,1.30
2018-07-15T22:25:29.410Z,1.50
2018-07-15T22:27:57.056Z,1.13
2018-07-15T22:30:25.084Z,1.10
2018-07-15T22:32:52.827Z,1.47
2018-07-15T22:35:20.496Z,2.43
2018-07-15T22:37:48.543Z,1.47
2018-07-15T22:40:16.336Z,1.20
2018-07-15T22:42:43.984Z,1.30
2018-07-15T22:45:11.846Z,1.27
2018-07-15T22:47:39.631Z,1.20
2018-07-15T22:50:07.562Z,1.23
2018-07-15T22:52:35.456Z,1.87
2018-07-15T22:55:03.308Z,2.30
2018-07-15T22:57:30.936Z,1.60
2018-07-15T22:59:58.722Z,1.37
2018-07-15T23:02:26.588Z,1.13
2018-07-15T23:06:02.503Z,1.30
2018-07-15T23:08:31.226Z,1.30
2018-07-15T23:10:58.938Z,0.87
2018-07-15T23:13:26.652Z,1.20
2018-07-15T23:15:54.589Z,1.10
2018-07-15T23:18:22.380Z,1.23
2018-07-15T23:20:50.599Z,1.10
2018-07-15T23:23:18.383Z,1.07
2018-07-15T23:25:46.067Z,1.17
2018-07-15T23:28:14.571Z,1.37
2018-07-15T23:30:42.604Z,1.10
2018-07-15T23:33:10.563Z,1.23
2018-07-15T23:35:38.393Z,1.20
2018-07-15T23:38:06.347Z,1.20
2018-07-15T23:40:33.952Z,1.30
2018-07-15T23:43:01.888Z,1.40
2018-07-15T23:45:30.604Z,1.20
2018-07-15T23:47:58.190Z,0.80
2018-07-15T23:50:26.000Z,1.60
2018-07-15T23:52:54.014Z,1.17
2018-07-15T23:55:21.667Z,1.50
2018-07-15T23:57:49.307Z,1.50
